Elm Grove, Louisiana
Current Conditions -  °F | °C
As of 2:58 PM on Monday 24 Nov 2014 (Local Time) from KBAD Reporting Station
Scattered Clouds Scattered Clouds  
Wind Chill: 62°   Ceiling: Unl
Heat Index: 62°   Visibility: 10mi
Dew Point: 25°   Wind: 13mph
Humidity: 25%   Direction: 340°NNW
Pressure: 30"   Gusts: NA
Location:  32.35°N, 93.55°W
Report Text: KBAD 242058Z AUTO 34011KT 10SM SCT200 16/M04 A3000 RMK AO2 SLP161 T01641040
Loading
Personal Weather Stations






























Interactive Weather Map New forecast layout! Learn more

10-Day Weather Forecast

Advertisements
Track Severe Weather on mobile